Time;durP1;ratioP1;P1;durP2;ratioP2;P2;SDS_P1;SDS_P2;PMS_P1;PMS_P2;Temp;Humidity;BMP_temperature;BMP_pressure;BME280_temperature;BME280_humidity;BME280_pressure;Samples;Min_cycle;Max_cycle;Signal;HPM_P1;HPM_P2
2022/09/29 00:00:35;;;;;;;12.90;12.30;;;;;;;9.99;100.00;98472.47;1981243;72;27728;-84
2022/09/29 00:06:12;;;;;;;12.33;11.83;;;;;;;10.09;100.00;98471.82;2083876;68;27637;-84
2022/09/29 00:08:43;;;;;;;14.03;12.33;;;;;;;9.92;100.00;98468.63;1965935;72;26266;-85
2022/09/29 00:11:15;;;;;;;12.23;11.73;;;;;;;9.93;100.00;98468.84;1979730;72;24608;-85
2022/09/29 00:13:48;;;;;;;11.90;11.30;;;;;;;10.00;100.00;98469.94;1976038;72;26732;-85
2022/09/29 00:16:20;;;;;;;12.23;11.83;;;;;;;10.03;100.00;98468.44;1975888;72;26236;-85
2022/09/29 00:18:56;;;;;;;13.17;12.67;;;;;;;9.95;100.00;98459.62;1937227;72;26224;-85
2022/09/29 00:21:27;;;;;;;13.10;12.60;;;;;;;9.85;100.00;98459.45;1997133;71;26321;-85
2022/09/29 00:23:59;;;;;;;12.33;11.73;;;;;;;9.86;100.00;98451.38;1996326;70;26907;-85
2022/09/29 00:26:30;;;;;;;10.93;10.43;;;;;;;9.89;100.00;98441.55;1942624;72;26352;-85
2022/09/29 00:29:02;;;;;;;10.80;10.30;;;;;;;9.82;100.00;98446.84;1975682;72;26248;-85
2022/09/29 00:31:38;;;;;;;11.20;10.70;;;;;;;9.86;100.00;98444.44;1975680;72;26295;-85
2022/09/29 00:34:09;;;;;;;11.83;11.13;;;;;;;9.76;100.00;98439.30;2011737;71;26302;-85
2022/09/29 00:36:41;;;;;;;10.63;10.13;;;;;;;9.85;100.00;98441.42;1975674;72;26236;-86
2022/09/29 00:39:14;;;;;;;11.60;11.00;;;;;;;9.80;100.00;98443.58;1975943;72;26277;-86
2022/09/29 00:45:16;;;;;;;11.23;10.73;;;;;;;9.73;100.00;98448.87;2010003;70;32524;-85
2022/09/29 00:47:51;;;;;;;12.13;11.50;;;;;;;9.78;100.00;98456.98;1902160;74;26340;-84
2022/09/29 00:50:26;;;;;;;11.47;10.97;;;;;;;9.51;100.00;98453.59;1916902;74;26812;-84
2022/09/29 00:53:01;;;;;;;11.57;10.97;;;;;;;9.57;100.00;98456.41;1905261;74;26365;-84
2022/09/29 00:55:38;;;;;;;12.13;11.53;;;;;;;9.58;100.00;98448.92;1905073;74;26657;-85
2022/09/29 00:58:12;;;;;;;11.53;11.03;;;;;;;9.56;100.00;98443.70;1905039;74;26343;-85
2022/09/29 01:00:42;;;;;;;11.07;10.67;;;;;;;9.68;100.00;98445.72;1893000;74;26272;-84
2022/09/29 01:03:18;;;;;;;11.53;11.03;;;;;;;9.57;100.00;98445.91;1865416;75;26258;-85
2022/09/29 01:05:55;;;;;;;12.20;11.53;;;;;;;9.53;100.00;98446.34;1910608;73;26297;-85
2022/09/29 01:08:30;;;;;;;11.50;11.00;;;;;;;9.51;100.00;98441.69;1927055;74;26752;-86
2022/09/29 01:11:06;;;;;;;11.63;11.13;;;;;;;9.50;100.00;98449.77;1867399;74;27522;-85
2022/09/29 01:13:38;;;;;;;11.67;11.10;;;;;;;9.52;100.00;98437.78;1924189;74;26645;-85
2022/09/29 01:16:09;;;;;;;11.47;10.97;;;;;;;9.56;100.00;98439.55;1918021;74;26287;-85
2022/09/29 01:18:43;;;;;;;11.67;11.17;;;;;;;9.48;100.00;98443.77;1864099;75;26280;-85
2022/09/29 01:21:24;;;;;;;11.80;11.30;;;;;;;9.48;100.00;98436.84;1906149;74;26648;-85
2022/09/29 01:27:51;;;;;;;11.57;11.00;;;;;;;9.50;100.00;98422.87;2061004;69;28533;-86
2022/09/29 01:30:27;;;;;;;11.50;11.00;;;;;;;9.48;100.00;98430.72;1949342;73;26270;-89
2022/09/29 01:33:26;;;;;;;11.23;10.80;;;;;;;9.56;100.00;98424.88;1937771;74;26663;-90
2022/09/29 01:39:14;;;;;;;11.83;11.30;;;;;;;9.62;100.00;98424.11;2057079;69;27804;-86
2022/09/29 01:41:49;;;;;;;11.53;10.93;;;;;;;9.60;100.00;98428.59;2016569;71;26202;-86
2022/09/29 01:47:26;;;;;;;10.60;10.20;;;;;;;9.74;100.00;98416.66;1981449;72;27782;-86
2022/09/29 01:53:10;;;;;;;10.60;10.10;;;;;;;9.80;100.00;98407.55;2013660;70;32484;-87
2022/09/29 01:55:45;;;;;;;10.87;10.30;;;;;;;9.85;100.00;98416.48;1957193;73;26293;-86
2022/09/29 01:58:19;;;;;;;10.73;10.13;;;;;;;9.72;100.00;98412.59;1963681;72;26317;-86
2022/09/29 02:00:54;;;;;;;10.87;10.37;;;;;;;9.81;100.00;98419.69;1986269;72;26794;-86
2022/09/29 02:03:27;;;;;;;10.40;9.90;;;;;;;9.85;100.00;98422.02;1918110;73;26268;-86
2022/09/29 02:06:02;;;;;;;10.27;9.87;;;;;;;9.90;100.00;98427.94;1908614;74;26240;-87
2022/09/29 02:11:35;;;;;;;10.30;9.90;;;;;;;9.94;100.00;98415.02;2019190;71;28152;-84
2022/09/29 02:17:09;;;;;;;9.80;9.40;;;;;;;10.10;100.00;98413.22;2058811;69;28038;-86
2022/09/29 02:22:43;;;;;;;9.67;9.27;;;;;;;10.16;100.00;98408.31;2046666;69;27732;-85
2022/09/29 02:28:31;;;;;;;9.87;9.47;;;;;;;10.19;100.00;98402.06;2013272;71;32897;-86
2022/09/29 02:34:02;;;;;;;10.50;10.00;;;;;;;10.22;100.00;98402.80;2058855;69;28140;-85
2022/09/29 02:42:43;;;;;;;9.20;8.80;;;;;;;10.20;100.00;98392.60;1973535;72;28310;-86
2022/09/29 02:45:23;;;;;;;9.17;8.77;;;;;;;10.17;100.00;98405.78;1933905;73;26221;-86
2022/09/29 02:48:06;;;;;;;8.97;8.63;;;;;;;10.16;100.00;98401.37;1866987;75;26424;-87
2022/09/29 02:51:05;;;;;;;8.77;8.47;;;;;;;10.23;100.00;98398.84;1872704;76;26383;-86
2022/09/29 02:53:44;;;;;;;9.17;8.67;;;;;;;10.23;100.00;98398.84;1866846;75;26301;-86
2022/09/29 02:56:19;;;;;;;8.90;8.50;;;;;;;10.08;100.00;98401.67;1860429;77;26269;-86
2022/09/29 02:58:57;;;;;;;8.83;8.43;;;;;;;10.19;100.00;98405.66;1860332;77;26359;-86
2022/09/29 03:01:35;;;;;;;8.70;8.30;;;;;;;10.16;100.00;98402.77;1901481;75;26263;-86
2022/09/29 03:04:07;;;;;;;9.07;8.63;;;;;;;10.20;100.00;98403.70;1876394;76;26295;-85
2022/09/29 03:06:39;;;;;;;8.80;8.40;;;;;;;10.25;100.00;98400.14;1861857;76;26727;-85
2022/09/29 03:09:12;;;;;;;9.10;8.70;;;;;;;10.12;100.00;98404.56;1860346;77;26368;-84
2022/09/29 03:11:46;;;;;;;8.73;8.33;;;;;;;10.12;100.00;98405.95;1872939;76;26289;-85
2022/09/29 03:14:18;;;;;;;8.40;8.07;;;;;;;10.20;100.00;98407.86;1916770;74;26278;-83
2022/09/29 03:16:49;;;;;;;8.80;8.20;;;;;;;10.23;100.00;98402.43;1839422;76;26390;-83
2022/09/29 03:22:24;;;;;;;9.23;8.83;;;;;;;10.20;100.00;98403.70;2078694;68;27836;-85
2022/09/29 03:24:56;;;;;;;8.70;8.37;;;;;;;10.16;100.00;98410.51;1993483;70;26266;-85
2022/09/29 03:30:34;;;;;;;9.10;8.70;;;;;;;10.14;100.00;98407.22;2011554;70;32765;-85
2022/09/29 03:33:05;;;;;;;9.33;8.83;;;;;;;10.13;100.00;98411.74;1945231;73;26273;-83
2022/09/29 03:35:36;;;;;;;9.13;8.63;;;;;;;10.20;100.00;98409.24;1962962;72;26601;-82
2022/09/29 03:38:07;;;;;;;9.23;8.73;;;;;;;10.10;100.00;98415.99;1970267;72;26332;-86
2022/09/29 03:40:39;;;;;;;8.97;8.47;;;;;;;10.16;100.00;98414.67;1941090;73;26277;-85
2022/09/29 03:43:10;;;;;;;9.53;9.13;;;;;;;10.08;100.00;98424.43;1859503;75;26281;-85
2022/09/29 03:45:50;;;;;;;9.00;8.50;;;;;;;10.14;100.00;98418.31;1923558;74;24220;-85
2022/09/29 03:48:26;;;;;;;8.87;8.47;;;;;;;9.99;100.00;98421.17;1891191;75;26354;-85
2022/09/29 03:50:57;;;;;;;9.20;8.70;;;;;;;10.12;100.00;98417.86;1914076;74;26363;-85
2022/09/29 03:53:31;;;;;;;9.20;8.70;;;;;;;10.15;100.00;98412.20;1894018;74;26382;-85
2022/09/29 03:59:00;;;;;;;10.20;9.70;;;;;;;9.99;100.00;98405.92;2057537;69;28060;-84
2022/09/29 04:04:33;;;;;;;9.80;9.30;;;;;;;10.04;100.00;98402.94;1995727;71;27782;-83
2022/09/29 04:07:06;;;;;;;9.40;9.10;;;;;;;9.98;100.00;98404.86;1938928;73;26355;-82
2022/09/29 04:12:40;;;;;;;9.70;9.20;;;;;;;9.95;100.00;98400.81;2022316;71;28087;-85
2022/09/29 04:18:20;;;;;;;9.80;9.30;;;;;;;9.94;100.00;98403.34;1953007;71;32520;-83
2022/09/29 04:20:54;;;;;;;9.80;9.10;;;;;;;9.87;100.00;98402.28;1922975;73;26326;-82
2022/09/29 04:23:26;;;;;;;9.07;8.67;;;;;;;9.94;100.00;98408.08;1960956;72;26237;-84
2022/09/29 04:26:00;;;;;;;9.30;8.90;;;;;;;9.89;100.00;98416.60;1920534;73;26366;-84
2022/09/29 04:28:34;;;;;;;9.10;8.70;;;;;;;9.95;100.00;98413.87;1958444;73;26235;-84
2022/09/29 04:34:11;;;;;;;9.20;8.80;;;;;;;9.97;100.00;98419.87;1916130;73;32549;-85
2022/09/29 04:36:45;;;;;;;9.27;8.77;;;;;;;9.94;100.00;98429.69;1863991;74;26714;-84
2022/09/29 04:39:15;;;;;;;9.27;8.90;;;;;;;9.95;100.00;98432.70;1819848;78;26294;-85
2022/09/29 04:41:46;;;;;;;8.40;8.10;;;;;;;9.98;100.00;98435.36;1829083;76;26265;-85
2022/09/29 04:44:19;;;;;;;9.10;8.70;;;;;;;9.96;100.00;98430.17;1834498;78;26255;-85
2022/09/29 04:46:52;;;;;;;9.00;8.70;;;;;;;9.93;100.00;98430.02;1829278;77;26866;-85
2022/09/29 04:49:28;;;;;;;9.13;8.73;;;;;;;10.05;100.00;98429.49;1834395;78;26268;-85
2022/09/29 04:51:58;;;;;;;9.03;8.63;;;;;;;10.06;100.00;98440.02;1828762;77;26449;-85
2022/09/29 04:54:33;;;;;;;9.30;8.80;;;;;;;10.01;100.00;98440.25;1842536;77;26373;-85
2022/09/29 04:57:05;;;;;;;8.87;8.47;;;;;;;10.04;100.00;98440.38;1848798;77;26349;-85
2022/09/29 04:59:37;;;;;;;8.70;8.30;;;;;;;9.89;100.00;98431.85;1817128;77;26248;-85
2022/09/29 05:02:08;;;;;;;9.57;9.17;;;;;;;9.86;100.00;98439.47;1848546;77;26259;-86
2022/09/29 05:04:39;;;;;;;9.07;8.67;;;;;;;9.76;100.00;98439.30;1848680;77;26779;-85
2022/09/29 05:07:09;;;;;;;9.40;8.90;;;;;;;9.85;100.00;98450.31;1855738;76;26304;-85
2022/09/29 05:09:41;;;;;;;9.13;8.70;;;;;;;9.86;100.00;98451.95;1824306;77;26302;-85
2022/09/29 05:12:16;;;;;;;9.00;8.50;;;;;;;9.84;100.00;98445.94;1851075;76;26921;-84
2022/09/29 05:14:50;;;;;;;9.40;9.00;;;;;;;9.84;100.00;98453.66;1824451;77;26960;-85
2022/09/29 05:17:23;;;;;;;9.87;9.27;;;;;;;9.93;100.00;98452.20;1833243;77;26308;-86
2022/09/29 05:19:54;;;;;;;9.30;8.90;;;;;;;9.95;100.00;98455.46;1834559;78;26272;-85
2022/09/29 05:22:29;;;;;;;9.30;8.90;;;;;;;10.00;100.00;98458.84;1830278;77;26308;-85
2022/09/29 05:28:02;;;;;;;9.90;9.50;;;;;;;9.95;100.00;98458.23;2040157;69;28002;-83
2022/09/29 05:33:36;;;;;;;9.90;9.40;;;;;;;9.99;100.00;98465.53;2023783;69;28067;-85
2022/09/29 05:36:10;;;;;;;9.70;9.20;;;;;;;9.90;100.00;98468.14;2010684;70;26262;-85
2022/09/29 05:38:44;;;;;;;9.80;9.30;;;;;;;9.89;100.00;98464.55;2011125;71;26294;-85
2022/09/29 05:41:21;;;;;;;9.63;9.03;;;;;;;9.86;100.00;98461.08;2020319;70;26355;-85
2022/09/29 05:43:52;;;;;;;9.63;9.13;;;;;;;9.79;100.00;98462.20;1901381;73;26271;-85
2022/09/29 05:46:24;;;;;;;9.70;9.30;;;;;;;9.82;100.00;98464.29;1924293;73;27564;-85
2022/09/29 05:48:57;;;;;;;8.73;8.33;;;;;;;9.87;100.00;98464.09;1961397;71;26329;-84
2022/09/29 05:51:28;;;;;;;9.43;9.03;;;;;;;9.81;100.00;98467.39;1953166;71;26236;-85
2022/09/29 05:54:02;;;;;;;8.70;8.30;;;;;;;9.80;100.00;98466.58;1922341;73;26843;-85
2022/09/29 05:56:41;;;;;;;9.03;8.63;;;;;;;9.77;100.00;98473.38;1931343;73;26232;-84
2022/09/29 05:59:12;;;;;;;9.00;8.60;;;;;;;9.81;100.00;98473.75;1922231;73;27381;-85
2022/09/29 06:01:52;;;;;;;9.20;8.80;;;;;;;9.69;100.00;98474.25;1920415;73;26356;-85
2022/09/29 06:04:25;;;;;;;8.63;8.03;;;;;;;9.67;100.00;98488.44;1963912;72;26268;-85
2022/09/29 06:06:58;;;;;;;8.67;8.17;;;;;;;9.59;100.00;98490.13;1941930;74;26840;-84
2022/09/29 06:12:31;;;;;;;8.83;8.33;;;;;;;9.53;100.00;98479.59;2010521;71;28710;-84
2022/09/29 06:15:05;;;;;;;8.83;8.43;;;;;;;9.60;100.00;98484.02;1947423;73;26277;-84
2022/09/29 06:17:37;;;;;;;8.20;7.80;;;;;;;9.70;100.00;98491.13;1947334;73;26176;-85
2022/09/29 06:20:14;;;;;;;8.73;8.23;;;;;;;9.74;100.00;98494.84;1947202;73;26227;-84
2022/09/29 06:22:46;;;;;;;8.87;8.47;;;;;;;9.71;100.00;98489.42;1947574;73;27350;-84
2022/09/29 06:25:18;;;;;;;8.23;7.73;;;;;;;9.74;100.00;98492.08;1932122;73;26344;-84
2022/09/29 06:30:47;;;;;;;9.00;8.40;;;;;;;9.86;100.00;98493.53;2076964;68;28142;-84
2022/09/29 06:33:19;;;;;;;8.70;8.20;;;;;;;9.78;100.00;98492.45;1980915;71;26697;-84
2022/09/29 06:38:41;;;;;;;8.60;8.20;;;;;;;9.88;100.00;98496.80;1996867;70;26232;-84
2022/09/29 06:41:13;;;;;;;8.77;8.33;;;;;;;9.90;100.00;98505.00;1975007;72;26248;-86
2022/09/29 06:43:43;;;;;;;8.57;8.03;;;;;;;10.00;100.00;98508.77;2000447;70;26730;-84
2022/09/29 06:46:14;;;;;;;8.80;8.33;;;;;;;10.09;100.00;98521.17;1972528;71;26258;-83
2022/09/29 06:48:44;;;;;;;9.23;8.53;;;;;;;10.03;100.00;98526.10;1942274;72;26272;-85
2022/09/29 06:51:16;;;;;;;9.63;9.13;;;;;;;10.10;100.00;98517.22;1942467;72;26313;-84
2022/09/29 06:53:48;;;;;;;9.93;9.43;;;;;;;10.12;100.00;98520.48;1998352;70;26546;-84
2022/09/29 06:56:21;;;;;;;8.93;8.53;;;;;;;10.23;100.00;98519.52;2007266;70;26390;-85
2022/09/29 06:58:54;;;;;;;9.67;9.07;;;;;;;10.28;100.00;98524.86;2002395;70;26704;-83
2022/09/29 07:01:26;;;;;;;9.37;8.90;;;;;;;10.37;100.00;98526.98;2015968;70;26268;-84
2022/09/29 07:03:59;;;;;;;10.60;10.00;;;;;;;10.46;100.00;98529.92;2004030;70;26322;-84
2022/09/29 07:06:31;;;;;;;10.43;9.93;;;;;;;10.52;100.00;98535.27;1978262;71;26371;-81
2022/09/29 07:09:02;;;;;;;10.80;10.30;;;;;;;10.62;100.00;98534.82;2010785;70;26414;-80
2022/09/29 07:11:34;;;;;;;11.03;10.53;;;;;;;10.79;100.00;98534.64;1975139;70;26681;-85
2022/09/29 07:14:04;;;;;;;10.53;10.03;;;;;;;10.78;100.00;98533.83;1981568;71;26250;-81
2022/09/29 07:16:35;;;;;;;9.83;9.37;;;;;;;10.86;100.00;98541.28;1903849;74;27298;-80
2022/09/29 07:19:08;;;;;;;9.60;9.00;;;;;;;10.97;100.00;98537.47;1884708;74;26830;-80
2022/09/29 07:21:42;;;;;;;9.57;8.97;;;;;;;10.91;100.00;98533.31;1975303;72;27329;-81
2022/09/29 07:24:12;;;;;;;10.50;9.97;;;;;;;11.07;100.00;98545.37;1976467;71;26283;-81
2022/09/29 07:26:46;;;;;;;9.43;8.93;;;;;;;11.05;100.00;98545.47;1975252;72;26386;-81
2022/09/29 07:29:19;;;;;;;8.13;7.73;;;;;;;11.12;100.00;98545.73;2001651;71;26683;-81
2022/09/29 07:31:51;;;;;;;9.43;8.83;;;;;;;11.32;100.00;98547.02;1975137;72;26285;-82
2022/09/29 07:34:22;;;;;;;9.30;8.90;;;;;;;11.37;100.00;98545.98;2011143;71;26221;-82
2022/09/29 07:36:56;;;;;;;10.77;10.27;;;;;;;11.34;100.00;98551.64;1975370;72;26361;-81
2022/09/29 07:39:26;;;;;;;6.93;6.63;;;;;;;11.29;100.00;98552.47;1975346;72;26224;-81
2022/09/29 07:41:57;;;;;;;9.30;8.80;;;;;;;11.37;100.00;98557.10;1974416;72;26783;-81
2022/09/29 07:47:26;;;;;;;7.70;7.30;;;;;;;11.49;100.00;98564.05;2079952;68;28575;-82
2022/09/29 07:50:00;;;;;;;8.23;7.73;;;;;;;11.52;100.00;98571.69;1974225;71;26260;-81
2022/09/29 07:52:32;;;;;;;7.30;7.00;;;;;;;11.67;100.00;98578.54;1994168;70;26236;-82
2022/09/29 07:55:03;;;;;;;7.37;6.67;;;;;;;11.70;100.00;98588.38;1979140;71;26889;-82
2022/09/29 07:57:36;;;;;;;7.37;6.97;;;;;;;11.76;100.00;98587.61;2014941;70;26274;-81
2022/09/29 08:00:10;;;;;;;6.90;6.60;;;;;;;11.86;100.00;98595.47;1999780;70;27085;-81
2022/09/29 08:02:43;;;;;;;7.03;6.80;;;;;;;11.92;100.00;98594.66;2004905;71;26196;-81
2022/09/29 08:05:13;;;;;;;6.77;6.53;;;;;;;12.05;100.00;98592.10;1975618;72;26765;-81
2022/09/29 08:07:48;;;;;;;7.10;6.70;;;;;;;12.08;100.00;98593.59;1937777;70;26792;-80
2022/09/29 08:10:19;;;;;;;6.40;6.10;;;;;;;11.98;100.00;98605.19;2006983;70;26239;-80
2022/09/29 08:12:49;;;;;;;6.30;6.10;;;;;;;11.94;100.00;98608.44;2011364;70;26333;-80
2022/09/29 08:15:20;;;;;;;6.90;6.60;;;;;;;11.95;100.00;98610.64;1966805;71;26742;-80
2022/09/29 08:20:54;;;;;;;6.30;6.00;;;;;;;12.21;100.00;98597.98;2020574;71;28795;-81
2022/09/29 08:29:27;;;;;;;6.93;6.73;;;;;;;12.88;100.00;98603.94;2020015;71;28151;-80
2022/09/29 08:31:58;;;;;;;6.33;6.03;;;;;;;12.96;100.00;98618.29;1977698;72;26732;-78
2022/09/29 08:34:29;;;;;;;6.40;6.20;;;;;;;13.00;100.00;98618.62;1952794;72;26666;-78
2022/09/29 08:39:59;;;;;;;6.73;6.47;;;;;;;13.21;100.00;98609.48;2058642;69;28064;-81
2022/09/29 08:45:41;;;;;;;6.97;6.67;;;;;;;13.58;100.00;98608.65;2010338;71;28029;-82
2022/09/29 08:48:15;;;;;;;7.07;6.77;;;;;;;13.71;100.00;98609.95;1946911;73;26235;-77
2022/09/29 08:50:50;;;;;;;6.73;6.47;;;;;;;14.57;100.00;98610.22;1912788;73;26316;-78
2022/09/29 08:53:24;;;;;;;6.70;6.40;;;;;;;14.78;100.00;98614.05;1947878;73;26382;-78
2022/09/29 08:55:57;;;;;;;7.00;6.70;;;;;;;16.69;100.00;98605.59;1908552;75;26668;-77
2022/09/29 08:58:28;;;;;;;6.90;6.70;;;;;;;18.37;100.00;98587.81;1843904;76;24202;-78
2022/09/29 09:01:10;;;;;;;6.63;6.43;;;;;;;19.77;100.00;98584.52;1895348;75;24281;-78
2022/09/29 09:07:09;;;;;;;6.47;6.27;;;;;;;17.97;100.00;98614.03;2057114;69;27450;-78
2022/09/29 09:09:50;;;;;;;7.30;7.00;;;;;;;19.61;100.00;98610.88;1936938;73;24285;-79
2022/09/29 09:12:41;;;;;;;7.93;7.63;;;;;;;17.96;100.00;98629.27;2013071;71;24198;-77
2022/09/29 09:15:22;;;;;;;7.40;7.10;;;;;;;16.92;100.00;98636.34;2013590;71;24237;-78
2022/09/29 09:21:09;;;;;;;7.27;7.03;;;;;;;17.35;100.00;98625.62;2044523;69;25964;-78
2022/09/29 09:23:47;;;;;;;7.17;6.97;;;;;;;16.74;100.00;98645.91;1996979;69;24259;-77
2022/09/29 09:29:22;;;;;;;7.13;6.93;;;;;;;17.38;100.00;98638.88;2037275;69;25515;-79
2022/09/29 09:31:59;;;;;;;7.13;6.80;;;;;;;17.08;100.00;98649.56;1985769;71;26282;-78
2022/09/29 09:34:32;;;;;;;6.47;6.27;;;;;;;17.08;100.00;98650.14;1974366;71;24669;-78
2022/09/29 09:37:07;;;;;;;6.30;6.10;;;;;;;17.08;100.00;98657.16;2007915;69;24253;-78
2022/09/29 09:39:41;;;;;;;6.20;6.00;;;;;;;17.10;100.00;98657.01;1947783;71;24734;-77
2022/09/29 09:42:16;;;;;;;6.13;5.93;;;;;;;17.06;100.00;98666.56;1952230;71;24217;-79
2022/09/29 09:44:49;;;;;;;6.53;6.33;;;;;;;17.00;100.00;98668.89;1962972;73;24180;-78
2022/09/29 09:47:26;;;;;;;6.40;6.20;;;;;;;16.88;100.00;98673.34;2002022;70;24260;-78
2022/09/29 09:50:00;;;;;;;6.30;6.10;;;;;;;16.91;100.00;98671.76;1957053;73;24738;-78
2022/09/29 09:52:36;;;;;;;6.83;6.63;;;;;;;17.18;100.00;98678.34;2005758;69;24243;-77
2022/09/29 09:55:10;;;;;;;5.67;5.47;;;;;;;17.47;100.00;98672.47;1937610;70;24280;-78
2022/09/29 09:58:07;;;;;;;5.33;5.13;;;;;;;18.04;100.00;98664.64;1961777;71;24199;-77
2022/09/29 10:00:42;;;;;;;4.93;4.63;;;;;;;18.77;100.00;98669.23;1948070;71;26724;-78
2022/09/29 10:03:15;;;;;;;5.20;5.10;;;;;;;18.41;100.00;98668.74;1965948;72;24200;-77
2022/09/29 10:05:48;;;;;;;5.53;5.33;;;;;;;17.87;100.00;98682.14;1933356;72;26354;-78
2022/09/29 10:11:27;;;;;;;6.53;6.33;;;;;;;16.52;100.00;98704.80;2044428;69;25899;-78
2022/09/29 10:14:04;;;;;;;6.73;6.53;;;;;;;16.17;100.00;98708.64;2000792;69;24642;-78
2022/09/29 10:16:40;;;;;;;6.87;6.57;;;;;;;15.84;100.00;98711.26;1979385;69;24278;-78
2022/09/29 10:19:11;;;;;;;7.43;7.13;;;;;;;15.75;100.00;98712.90;1955113;71;24197;-78
2022/09/29 10:21:44;;;;;;;7.10;6.80;;;;;;;15.82;100.00;98718.65;1981247;70;24233;-78
2022/09/29 10:24:26;;;;;;;7.43;7.13;;;;;;;15.90;100.00;98716.20;1945102;71;24195;-77
2022/09/29 10:27:00;;;;;;;6.80;6.60;;;;;;;16.01;100.00;98719.17;1901453;72;24162;-77
2022/09/29 10:32:37;;;;;;;6.80;6.60;;;;;;;17.10;100.00;98705.28;2036344;69;26693;-76
2022/09/29 10:35:17;;;;;;;6.87;6.53;;;;;;;17.05;100.00;98709.23;1944580;73;26328;-77
2022/09/29 10:37:50;;;;;;;7.00;6.70;;;;;;;16.79;100.00;98717.08;1910170;73;24670;-77
2022/09/29 10:40:22;;;;;;;6.57;6.37;;;;;;;16.70;100.00;98722.14;1929373;73;24216;-77
2022/09/29 10:42:53;;;;;;;6.97;6.67;;;;;;;16.79;100.00;98720.47;1919985;73;24213;-80
2022/09/29 10:45:28;;;;;;;7.23;6.93;;;;;;;16.86;100.00;98724.77;1963915;70;24194;-78
2022/09/29 10:48:28;;;;;;;6.63;6.33;;;;;;;16.89;100.00;98728.23;1977215;71;24205;-79
2022/09/29 10:51:03;;;;;;;6.57;6.37;;;;;;;17.63;100.00;98717.98;2010551;70;24637;-77
2022/09/29 10:57:01;;;;;;;6.93;6.63;;;;;;;17.53;100.00;98727.67;2011171;70;30666;-80
2022/09/29 10:59:34;;;;;;;6.83;6.63;;;;;;;17.37;100.00;98725.67;1891275;75;24233;-79
2022/09/29 11:02:06;;;;;;;7.97;7.67;;;;;;;17.05;100.00;98737.87;1855684;74;24239;-79
2022/09/29 11:04:39;;;;;;;8.37;8.00;;;;;;;16.91;100.00;98747.47;1902879;73;24283;-80
2022/09/29 11:07:13;;;;;;;7.90;7.60;;;;;;;16.65;100.00;98751.08;1910192;74;24363;-80
2022/09/29 11:09:49;;;;;;;8.40;8.10;;;;;;;16.58;100.00;98764.41;1904501;74;24235;-79
2022/09/29 11:12:37;;;;;;;8.53;8.13;;;;;;;16.66;100.00;98763.33;1876166;74;26361;-78
2022/09/29 11:15:24;;;;;;;8.23;7.93;;;;;;;16.56;100.00;98770.94;1906114;75;25334;-78
2022/09/29 11:17:56;;;;;;;9.00;8.60;;;;;;;16.36;100.00;98773.60;1904272;74;26683;-79
2022/09/29 11:23:34;;;;;;;9.30;8.90;;;;;;;15.92;100.00;98781.01;2056264;69;25285;-79
2022/09/29 11:29:28;;;;;;;9.53;9.03;;;;;;;15.67;100.00;98804.91;2024145;69;25353;-77
2022/09/29 11:32:20;;;;;;;9.10;8.70;;;;;;;15.56;100.00;98817.06;2019172;71;24194;-77
2022/09/29 11:35:12;;;;;;;9.07;8.67;;;;;;;15.43;100.00;98824.17;1992603;71;24194;-77
2022/09/29 11:37:57;;;;;;;10.40;9.87;;;;;;;15.19;100.00;98827.21;2008347;71;26311;-77
2022/09/29 11:40:33;;;;;;;10.33;9.73;;;;;;;15.11;100.00;98829.63;2000207;70;24300;-77
2022/09/29 11:43:13;;;;;;;10.60;9.90;;;;;;;15.10;100.00;98836.41;1923197;72;24284;-77
2022/09/29 11:49:09;;;;;;;9.50;8.90;;;;;;;15.40;100.00;98827.68;2056706;69;25996;-76
2022/09/29 11:51:47;;;;;;;8.97;8.47;;;;;;;15.80;100.00;98837.75;2023371;71;24139;-78
2022/09/29 11:54:26;;;;;;;8.23;7.90;;;;;;;16.48;100.00;98833.66;1985386;71;24622;-77
2022/09/29 11:57:00;;;;;;;8.30;7.90;;;;;;;16.88;100.00;98831.77;1943440;73;24227;-77
2022/09/29 11:59:40;;;;;;;8.00;7.70;;;;;;;17.23;100.00;98825.30;1909406;74;24190;-77
2022/09/29 12:02:27;;;;;;;8.67;8.27;;;;;;;17.36;100.00;98827.29;1920044;74;24182;-77
2022/09/29 12:05:04;;;;;;;8.67;8.27;;;;;;;17.46;100.00;98828.61;1978242;72;24483;-77
2022/09/29 12:07:40;;;;;;;9.20;8.80;;;;;;;17.19;100.00;98845.48;1942304;72;24206;-77
2022/09/29 12:10:25;;;;;;;9.40;8.90;;;;;;;16.92;100.00;98845.84;1942950;74;26723;-77
2022/09/29 12:13:02;;;;;;;9.60;9.10;;;;;;;16.79;100.00;98849.44;1924096;74;24125;-77
2022/09/29 12:15:38;;;;;;;9.00;8.60;;;;;;;16.49;100.00;98858.28;1942437;72;25313;-77
2022/09/29 12:18:13;;;;;;;8.97;8.47;;;;;;;16.30;100.00;98859.94;1943037;73;24241;-78
2022/09/29 12:20:47;;;;;;;8.57;8.17;;;;;;;16.43;100.00;98857.78;1978105;72;26286;-77
2022/09/29 12:23:22;;;;;;;8.00;7.70;;;;;;;16.54;100.00;98869.19;1907459;74;24237;-77
2022/09/29 12:25:58;;;;;;;9.07;8.60;;;;;;;16.70;100.00;98858.10;1941519;72;24280;-77
2022/09/29 12:28:34;;;;;;;7.80;7.30;;;;;;;16.82;100.00;98855.69;1976110;72;24251;-76
2022/09/29 12:34:09;;;;;;;6.90;6.60;;;;;;;17.58;100.00;98848.89;2056355;69;25657;-77
2022/09/29 12:36:52;;;;;;;6.63;6.33;;;;;;;17.25;100.00;98857.98;2022459;70;24155;-76
2022/09/29 12:39:34;;;;;;;6.87;6.47;;;;;;;17.09;100.00;98864.95;1924057;74;24169;-79
2022/09/29 12:42:18;;;;;;;6.80;6.60;;;;;;;17.37;100.00;98851.95;1978367;72;26676;-78
2022/09/29 12:44:52;;;;;;;7.07;6.77;;;;;;;17.65;100.00;98852.38;1944975;74;24257;-78
2022/09/29 12:47:26;;;;;;;7.87;7.57;;;;;;;18.06;100.00;98846.25;1920827;72;24185;-78
2022/09/29 12:50:03;;;;;;;8.00;7.70;;;;;;;18.22;100.00;98845.45;1943051;74;24145;-78
2022/09/29 12:52:39;;;;;;;7.70;7.40;;;;;;;18.48;100.00;98845.30;1979226;72;24101;-78
2022/09/29 12:55:16;;;;;;;8.17;7.77;;;;;;;18.61;100.00;98850.10;1943260;74;24666;-77
2022/09/29 12:57:50;;;;;;;7.93;7.63;;;;;;;18.58;100.00;98845.23;1937232;73;24170;-78
2022/09/29 13:03:38;;;;;;;8.67;8.37;;;;;;;17.07;100.00;98861.11;1974574;72;25636;-77
2022/09/29 13:06:48;;;;;;;8.40;8.00;;;;;;;17.07;100.00;98865.94;1912882;74;26789;-79
2022/09/29 13:12:51;;;;;;;9.17;8.87;;;;;;;17.03;100.00;98871.45;2012349;71;26085;-77
2022/09/29 13:18:50;;;;;;;8.43;8.13;;;;;;;17.29;100.00;98873.47;2044528;69;25922;-77
2022/09/29 13:21:25;;;;;;;8.50;8.10;;;;;;;17.31;100.00;98879.53;1995564;69;26742;-77
2022/09/29 13:27:31;;;;;;;7.17;6.87;;;;;;;17.70;100.00;98880.94;2055888;69;26023;-77
2022/09/29 13:30:08;;;;;;;7.63;7.33;;;;;;;17.76;100.00;98871.56;2015978;71;24169;-77
2022/09/29 13:32:50;;;;;;;7.93;7.63;;;;;;;17.56;100.00;98878.48;1985023;71;24268;-78
2022/09/29 13:35:26;;;;;;;7.80;7.50;;;;;;;17.64;100.00;98877.42;1942345;73;24948;-78
2022/09/29 13:38:00;;;;;;;8.10;7.70;;;;;;;17.68;100.00;98881.08;1982250;72;24222;-77
2022/09/29 13:40:37;;;;;;;8.00;7.63;;;;;;;17.84;100.00;98887.31;1982440;72;24171;-78
2022/09/29 13:46:40;;;;;;;8.00;7.70;;;;;;;17.27;100.00;98897.72;1940249;73;30829;-78
2022/09/29 13:49:31;;;;;;;8.33;7.93;;;;;;;17.09;100.00;98903.63;1904373;74;24224;-78
2022/09/29 13:52:05;;;;;;;8.50;8.10;;;;;;;16.79;100.00;98909.72;1884062;75;24825;-78
2022/09/29 13:54:40;;;;;;;8.50;8.20;;;;;;;16.69;100.00;98917.33;1901380;73;24272;-78
2022/09/29 13:57:28;;;;;;;8.93;8.47;;;;;;;16.72;100.00;98918.83;1865440;75;26344;-79
2022/09/29 14:00:23;;;;;;;8.10;7.70;;;;;;;16.66;100.00;98925.09;1901206;74;24210;-78
2022/09/29 14:03:07;;;;;;;8.20;7.70;;;;;;;16.76;100.00;98924.49;1898259;74;24316;-78
2022/09/29 14:06:00;;;;;;;8.20;7.80;;;;;;;16.87;100.00;98924.67;1901965;74;24718;-78
2022/09/29 14:08:40;;;;;;;10.20;8.40;;;;;;;16.91;100.00;98930.55;1901540;74;24684;-78
2022/09/29 14:11:19;;;;;;;8.90;8.50;;;;;;;17.06;100.00;98932.44;1906220;75;24189;-78
2022/09/29 14:13:58;;;;;;;8.73;8.20;;;;;;;17.34;100.00;98936.28;1862993;76;24331;-78
2022/09/29 14:20:09;;;;;;;8.63;8.20;;;;;;;17.36;100.00;98934.52;1913915;73;30844;-80
2022/09/29 14:23:03;;;;;;;8.10;7.70;;;;;;;17.56;100.00;98938.83;1884646;75;24745;-79
2022/09/29 14:25:54;;;;;;;8.20;7.70;;;;;;;17.68;100.00;98931.03;1921019;73;24232;-79
2022/09/29 14:28:38;;;;;;;7.97;7.57;;;;;;;17.96;100.00;98926.42;1935571;73;24718;-81